Time;durP1;ratioP1;P1;durP2;ratioP2;P2;SDS_P1;SDS_P2;PMS_P1;PMS_P2;Temp;Humidity;BMP_temperature;BMP_pressure;BME280_temperature;BME280_humidity;BME280_pressure;Samples;Min_cycle;Max_cycle;Signal;HPM_P1;HPM_P2
2023/09/10 00:01:32;;;;;;;;;;;;;;;19.43;100.00;95921.34;10487046;28;1039;-78
2023/09/10 00:06:36;;;;;;;;;;;;;;;19.52;100.00;95917.78;10479293;28;1571;-79
2023/09/10 00:11:38;;;;;;;;;;;;;;;19.39;100.00;95917.66;10486047;28;1910;-79
2023/09/10 00:16:41;;;;;;;;;;;;;;;19.44;100.00;95913.97;10489327;28;1043;-79
2023/09/10 00:21:43;;;;;;;;;;;;;;;19.50;100.00;95917.31;10487864;28;1808;-79
2023/09/10 00:26:45;;;;;;;;;;;;;;;19.45;100.00;95912.84;10470803;28;2684;-80
2023/09/10 00:31:48;;;;;;;;;;;;;;;19.35;100.00;95915.94;10491383;28;1972;-79
2023/09/10 00:36:52;;;;;;;;;;;;;;;19.31;100.00;95920.44;10476186;28;1424;-79
2023/09/10 00:41:55;;;;;;;;;;;;;;;19.32;100.00;95917.38;10479446;28;1536;-79
2023/09/10 00:46:57;;;;;;;;;;;;;;;19.11;100.00;95905.59;10488221;28;1435;-79
2023/09/10 00:51:59;;;;;;;;;;;;;;;18.88;100.00;95911.22;10470033;28;2059;-79
2023/09/10 00:57:02;;;;;;;;;;;;;;;18.72;100.00;95914.78;10456492;28;1357;-79
2023/09/10 01:02:04;;;;;;;;;;;;;;;18.69;100.00;95918.94;10463875;28;1515;-80
2023/09/10 01:07:06;;;;;;;;;;;;;;;18.67;100.00;95920.41;10471919;28;1585;-79
2023/09/10 01:12:09;;;;;;;;;;;;;;;18.68;100.00;95919.28;10470827;28;1922;-80
2023/09/10 01:17:11;;;;;;;;;;;;;;;18.52;100.00;95922.47;10473485;28;1115;-80
2023/09/10 01:22:14;;;;;;;;;;;;;;;18.66;100.00;95925.00;10470556;28;2382;-79
2023/09/10 01:27:17;;;;;;;;;;;;;;;18.68;100.00;95922.78;10472383;28;1134;-79
2023/09/10 01:32:19;;;;;;;;;;;;;;;18.68;100.00;95922.00;10482719;28;1979;-79
2023/09/10 01:37:21;;;;;;;;;;;;;;;18.64;100.00;95919.09;10480491;28;1537;-78
2023/09/10 01:42:24;;;;;;;;;;;;;;;18.49;100.00;95908.69;10474799;28;5098;-79
2023/09/10 01:47:26;;;;;;;;;;;;;;;18.53;100.00;95909.66;10474030;28;1205;-79
2023/09/10 01:52:29;;;;;;;;;;;;;;;18.53;100.00;95904.19;10463914;28;1918;-79
2023/09/10 01:57:31;;;;;;;;;;;;;;;18.45;100.00;95924.03;10464748;28;996;-78
2023/09/10 02:02:34;;;;;;;;;;;;;;;18.47;100.00;95922.59;10486800;28;1554;-78
2023/09/10 02:07:36;;;;;;;;;;;;;;;18.55;100.00;95924.53;10483431;28;1525;-77
2023/09/10 02:12:39;;;;;;;;;;;;;;;18.48;100.00;95934.28;10477944;28;1898;-78
2023/09/10 02:17:41;;;;;;;;;;;;;;;18.49;100.00;95925.81;10460545;28;2414;-78
2023/09/10 02:22:48;;;;;;;;;;;;;;;18.40;100.00;95932.38;10477106;28;1633;-78
2023/09/10 02:27:50;;;;;;;;;;;;;;;18.37;100.00;95940.03;10479364;28;1051;-78
2023/09/10 02:32:53;;;;;;;;;;;;;;;18.39;100.00;95936.22;10500107;28;1970;-78
2023/09/10 02:37:55;;;;;;;;;;;;;;;18.32;100.00;95936.66;10476894;28;1573;-78
2023/09/10 02:42:58;;;;;;;;;;;;;;;18.24;100.00;95941.00;10474212;28;5043;-78
2023/09/10 02:48:00;;;;;;;;;;;;;;;18.19;100.00;95935.69;10461563;28;1562;-78
2023/09/10 02:53:03;;;;;;;;;;;;;;;18.21;100.00;95936.19;10470416;28;1914;-78
2023/09/10 02:58:06;;;;;;;;;;;;;;;18.23;100.00;95936.69;10470320;28;1012;-80
2023/09/10 03:03:08;;;;;;;;;;;;;;;18.22;100.00;95939.72;10466473;28;1395;-77
2023/09/10 03:08:11;;;;;;;;;;;;;;;18.21;100.00;95941.66;10455937;28;1352;-79
2023/09/10 03:13:13;;;;;;;;;;;;;;;18.16;100.00;95941.78;10466594;28;2281;-77
2023/09/10 03:18:15;;;;;;;;;;;;;;;18.23;100.00;95939.41;10484271;28;1548;-79
2023/09/10 03:23:19;;;;;;;;;;;;;;;18.20;100.00;95941.97;10506954;28;1408;-79
2023/09/10 03:28:22;;;;;;;;;;;;;;;18.25;100.00;95942.59;10497072;28;1039;-79
2023/09/10 03:33:24;;;;;;;;;;;;;;;18.22;100.00;95942.44;10493088;28;1997;-79
2023/09/10 03:38:27;;;;;;;;;;;;;;;18.23;100.00;95928.50;10472971;28;1364;-79
2023/09/10 03:43:29;;;;;;;;;;;;;;;18.12;100.00;95932.66;10483612;28;4983;-78
2023/09/10 03:48:31;;;;;;;;;;;;;;;17.92;100.00;95936.78;10484449;28;1385;-79
2023/09/10 03:53:34;;;;;;;;;;;;;;;17.87;100.00;95930.69;10478065;28;1906;-79
2023/09/10 03:58:36;;;;;;;;;;;;;;;17.74;100.00;95948.72;10481526;28;1154;-79
2023/09/10 04:03:39;;;;;;;;;;;;;;;17.69;100.00;95946.94;10482506;28;1380;-79
2023/09/10 04:08:42;;;;;;;;;;;;;;;17.80;100.00;95947.44;10468252;28;2275;-78
2023/09/10 04:13:44;;;;;;;;;;;;;;;17.69;100.00;95946.13;10478750;28;1910;-80
2023/09/10 04:18:46;;;;;;;;;;;;;;;17.64;100.00;95948.97;10493705;28;1622;-78
2023/09/10 04:23:49;;;;;;;;;;;;;;;17.52;100.00;95952.28;10483449;28;1390;-77
2023/09/10 04:28:52;;;;;;;;;;;;;;;17.55;100.00;95957.88;10483959;28;1087;-78
2023/09/10 04:33:54;;;;;;;;;;;;;;;17.62;100.00;95957.44;10495376;28;1983;-78
2023/09/10 04:38:58;;;;;;;;;;;;;;;17.57;100.00;95957.59;10486507;28;1510;-77
2023/09/10 04:44:00;;;;;;;;;;;;;;;17.59;100.00;95957.28;10484055;28;5322;-78
2023/09/10 04:49:03;;;;;;;;;;;;;;;17.58;100.00;95961.09;10483755;28;1388;-79
2023/09/10 04:54:05;;;;;;;;;;;;;;;17.60;100.00;95962.38;10469832;28;1918;-79
2023/09/10 04:59:07;;;;;;;;;;;;;;;17.58;100.00;95966.53;10475589;28;1061;-79
2023/09/10 05:04:10;;;;;;;;;;;;;;;17.65;100.00;95972.31;10463134;28;2324;-79
2023/09/10 05:09:13;;;;;;;;;;;;;;;17.84;100.00;95981.06;10478357;28;1563;-79
2023/09/10 05:14:15;;;;;;;;;;;;;;;17.92;100.00;95974.84;10492923;28;1917;-79
2023/09/10 05:19:17;;;;;;;;;;;;;;;18.10;100.00;95975.69;10482486;28;1360;-79
2023/09/10 05:24:20;;;;;;;;;;;;;;;18.20;100.00;95972.69;10449661;28;1395;-79
2023/09/10 05:29:22;;;;;;;;;;;;;;;18.33;100.00;95977.19;10456634;28;1384;-79
2023/09/10 05:34:25;;;;;;;;;;;;;;;18.54;100.00;95979.28;10473897;28;1934;-80
2023/09/10 05:39:27;;;;;;;;;;;;;;;18.87;100.00;95974.19;10494555;28;1383;-80
2023/09/10 05:44:30;;;;;;;;;;;;;;;19.02;100.00;95972.91;10481916;28;5233;-79
2023/09/10 05:49:33;;;;;;;;;;;;;;;19.24;100.00;95989.06;10482514;28;1451;-77
2023/09/10 05:54:35;;;;;;;;;;;;;;;19.57;100.00;95961.22;10463061;28;1914;-79
2023/09/10 05:59:38;;;;;;;;;;;;;;;19.57;100.00;95969.41;10463287;28;2361;-80
2023/09/10 06:04:40;;;;;;;;;;;;;;;19.96;100.00;95969.09;10480508;28;1027;-79
2023/09/10 06:09:42;;;;;;;;;;;;;;;20.10;100.00;95968.06;10483676;28;1383;-79
2023/09/10 06:14:45;;;;;;;;;;;;;;;20.35;100.00;95966.31;10486022;28;1975;-79
2023/09/10 06:19:48;;;;;;;;;;;;;;;20.36;100.00;95965.19;10474393;28;1331;-79
2023/09/10 06:24:50;;;;;;;;;;;;;;;20.63;100.00;95972.13;10474047;28;1435;-79
2023/09/10 06:29:53;;;;;;;;;;;;;;;21.03;100.00;95965.00;10466584;28;1337;-79
2023/09/10 06:34:55;;;;;;;;;;;;;;;21.21;100.00;95957.44;10477926;28;1981;-78
2023/09/10 06:39:58;;;;;;;;;;;;;;;21.45;100.00;95962.22;10472347;28;5338;-78
2023/09/10 06:45:00;;;;;;;;;;;;;;;21.74;100.00;95954.94;10470696;28;1023;-78
2023/09/10 06:50:03;;;;;;;;;;;;;;;22.07;100.00;95958.38;10465829;28;1606;-78
2023/09/10 06:55:05;;;;;;;;;;;;;;;22.35;100.00;95963.19;10455297;28;1922;-78
2023/09/10 07:00:07;;;;;;;;;;;;;;;22.47;100.00;95954.16;10457111;28;2514;-80
2023/09/10 07:05:10;;;;;;;;;;;;;;;22.61;100.00;95960.06;10473345;28;1424;-79
2023/09/10 07:10:13;;;;;;;;;;;;;;;22.66;100.00;95960.63;10461646;28;1372;-78
2023/09/10 07:15:15;;;;;;;;;;;;;;;23.09;100.00;95948.16;10461963;28;1979;-79
2023/09/10 07:20:18;;;;;;;;;;;;;;;23.28;100.00;95949.44;10487807;28;1047;-79
2023/09/10 07:25:20;;;;;;;;;;;;;;;23.18;100.00;95942.53;10471486;28;1359;-79
2023/09/10 07:30:22;;;;;;;;;;;;;;;23.38;100.00;95946.19;10473260;28;1371;-79
2023/09/10 07:35:25;;;;;;;;;;;;;;;24.03;100.00;95940.41;10471920;28;1985;-79
2023/09/10 07:40:27;;;;;;;;;;;;;;;24.09;100.00;95945.25;10474489;28;4979;-79
2023/09/10 07:45:30;;;;;;;;;;;;;;;24.39;100.00;95947.53;10462521;28;1375;-79
2023/09/10 07:50:32;;;;;;;;;;;;;;;24.38;100.00;95934.97;10487843;28;1020;-79
2023/09/10 07:55:35;;;;;;;;;;;;;;;24.42;100.00;95941.31;10472058;28;2543;-79
2023/09/10 08:00:37;;;;;;;;;;;;;;;24.56;100.00;95936.16;10487740;28;1074;-79
2023/09/10 08:05:39;;;;;;;;;;;;;;;24.69;100.00;95940.38;10463959;28;1527;-78
2023/09/10 08:10:42;;;;;;;;;;;;;;;24.90;100.00;95944.72;10465243;28;1381;-78
2023/09/10 08:15:44;;;;;;;;;;;;;;;25.11;100.00;95934.16;10475081;28;1993;-79
2023/09/10 08:20:48;;;;;;;;;;;;;;;25.23;100.00;95928.50;10483259;28;1028;-79
2023/09/10 08:25:52;;;;;;;;;;;;;;;25.61;100.00;95929.59;10469947;28;1411;-79
2023/09/10 08:30:54;;;;;;;;;;;;;;;25.71;100.00;95940.00;10475454;28;1393;-79
2023/09/10 08:35:57;;;;;;;;;;;;;;;25.66;100.00;95928.50;10476112;28;1975;-79
2023/09/10 08:40:59;;;;;;;;;;;;;;;25.44;100.00;95933.59;10475611;28;5007;-79
2023/09/10 08:46:02;;;;;;;;;;;;;;;25.73;100.00;95934.16;10479766;28;1225;-79
2023/09/10 08:51:04;;;;;;;;;;;;;;;25.59;100.00;95932.72;10487122;28;2399;-78
2023/09/10 08:56:08;;;;;;;;;;;;;;;25.85;100.00;95923.75;10467471;28;1906;-78
2023/09/10 09:01:10;;;;;;;;;;;;;;;26.16;100.00;95929.34;10485632;28;1400;-79
2023/09/10 09:06:13;;;;;;;;;;;;;;;26.03;100.00;95923.25;10461307;28;1364;-79
2023/09/10 09:11:15;;;;;;;;;;;;;;;26.26;100.00;95915.69;10482482;28;1099;-79
2023/09/10 09:16:18;;;;;;;;;;;;;;;26.34;100.00;95922.13;10472961;28;1989;-79
2023/09/10 09:21:23;;;;;;;;;;;;;;;26.47;100.00;95925.50;10472755;28;1404;-79
2023/09/10 09:26:26;;;;;;;;;;;;;;;26.88;100.00;95924.44;10471009;28;1228;-78
2023/09/10 09:31:28;;;;;;;;;;;;;;;26.78;100.00;95918.78;10470826;28;1392;-78
2023/09/10 09:36:36;;;;;;;;;;;;;;;26.90;100.00;95918.56;10488487;28;1997;-79
2023/09/10 09:41:39;;;;;;;;;;;;;;;26.91;100.00;95918.19;10478209;28;5153;-79
2023/09/10 09:46:49;;;;;;;;;;;;;;;26.62;100.00;95917.03;10478947;28;2476;-79
2023/09/10 09:51:51;;;;;;;;;;;;;;;26.54;100.00;95920.06;10474209;28;1448;-77
2023/09/10 09:56:54;;;;;;;;;;;;;;;26.86;100.00;95914.97;10483716;28;1143;-79
2023/09/10 10:01:57;;;;;;;;;;;;;;;26.90;100.00;95911.06;10475087;28;1410;-78
2023/09/10 10:07:00;;;;;;;;;;;;;;;27.08;100.00;95907.75;10486703;28;1467;-79
2023/09/10 10:12:18;;;;;;;;;;;;;;;27.13;100.00;95901.91;10468745;28;1913;-79
2023/09/10 10:17:24;;;;;;;;;;;;;;;26.86;100.00;95901.19;10478770;28;1431;-79
2023/09/10 10:22:27;;;;;;;;;;;;;;;26.89;100.00;95901.22;10461390;28;1431;-79
2023/09/10 10:27:30;;;;;;;;;;;;;;;27.05;100.00;95900.22;10491251;28;1105;-79
2023/09/10 10:32:36;;;;;;;;;;;;;;;27.11;100.00;95896.00;10475864;28;1883;-77
2023/09/10 10:37:41;;;;;;;;;;;;;;;26.85;100.00;95891.34;10481483;28;1850;-78
2023/09/10 10:42:43;;;;;;;;;;;;;;;26.98;100.00;95894.63;10469939;28;5177;-78
2023/09/10 10:47:46;;;;;;;;;;;;;;;27.02;100.00;95887.16;10465263;28;1360;-78
2023/09/10 10:52:48;;;;;;;;;;;;;;;27.26;100.00;95877.63;10468295;28;1906;-79
2023/09/10 10:57:51;;;;;;;;;;;;;;;27.28;100.00;95887.09;10483133;28;1083;-79
2023/09/10 11:02:53;;;;;;;;;;;;;;;27.23;100.00;95873.66;10484371;28;1455;-79
2023/09/10 11:07:55;;;;;;;;;;;;;;;26.86;100.00;95879.91;10471645;28;1459;-78
2023/09/10 11:12:58;;;;;;;;;;;;;;;26.90;100.00;95872.47;10468685;28;1984;-80
2023/09/10 11:18:00;;;;;;;;;;;;;;;27.21;100.00;95870.47;10461201;28;1104;-80
2023/09/10 11:23:03;;;;;;;;;;;;;;;27.28;100.00;95865.00;10482872;28;1443;-80
2023/09/10 11:28:05;;;;;;;;;;;;;;;27.20;100.00;95866.13;10472940;28;1028;-80
2023/09/10 11:33:07;;;;;;;;;;;;;;;27.09;100.00;95860.47;10484646;28;1930;-79
2023/09/10 11:38:10;;;;;;;;;;;;;;;27.02;100.00;95862.34;10471014;28;2443;-81
2023/09/10 11:43:12;;;;;;;;;;;;;;;27.05;100.00;95845.88;10469878;28;5019;-79
2023/09/10 11:48:15;;;;;;;;;;;;;;;27.17;100.00;95856.66;10507039;28;1520;-78
2023/09/10 11:53:17;;;;;;;;;;;;;;;27.18;100.00;95860.97;10489461;28;1975;-78
2023/09/10 11:58:20;;;;;;;;;;;;;;;27.43;100.00;95852.94;10476977;28;1159;-79
2023/09/10 12:03:25;;;;;;;;;;;;;;;27.50;100.00;95848.66;10461714;28;1515;-80
2023/09/10 12:08:27;;;;;;;;;;;;;;;27.70;100.00;95847.28;10467634;28;1385;-79
2023/09/10 12:13:32;;;;;;;;;;;;;;;27.68;98.85;95849.63;10475696;28;1987;-80
2023/09/10 12:18:34;;;;;;;;;;;;;;;27.75;99.39;95849.69;10477618;28;1369;-79
2023/09/10 12:23:37;;;;;;;;;;;;;;;27.98;96.75;95844.72;10478400;28;1344;-79
2023/09/10 12:28:40;;;;;;;;;;;;;;;27.79;97.40;95831.16;10470419;28;1070;-80
2023/09/10 12:33:43;;;;;;;;;;;;;;;27.54;98.22;95843.94;10479504;28;2448;-79
2023/09/10 12:38:45;;;;;;;;;;;;;;;27.55;99.96;95834.47;10472989;28;1587;-78
2023/09/10 12:43:48;;;;;;;;;;;;;;;27.54;94.55;95838.44;10488591;28;5109;-79
2023/09/10 12:48:50;;;;;;;;;;;;;;;27.79;86.28;95828.41;10480766;28;1348;-79
2023/09/10 12:53:53;;;;;;;;;;;;;;;27.91;91.87;95825.31;10488429;28;1973;-80
2023/09/10 12:58:55;;;;;;;;;;;;;;;27.85;98.13;95815.03;10475437;28;1052;-79
2023/09/10 13:03:57;;;;;;;;;;;;;;;27.82;97.14;95816.59;10484314;28;1309;-79
2023/09/10 13:09:00;;;;;;;;;;;;;;;27.93;98.49;95817.47;10471288;28;1396;-79
2023/09/10 13:14:03;;;;;;;;;;;;;;;27.77;99.29;95810.63;10483314;28;1918;-80
2023/09/10 13:19:05;;;;;;;;;;;;;;;28.03;99.93;95810.41;10478036;28;1352;-80
2023/09/10 13:24:08;;;;;;;;;;;;;;;27.80;99.31;95810.66;10470650;28;1427;-79
2023/09/10 13:29:10;;;;;;;;;;;;;;;27.88;100.00;95804.00;10479287;28;1399;-78
2023/09/10 13:34:13;;;;;;;;;;;;;;;27.77;99.48;95808.66;10488564;28;2573;-79
2023/09/10 13:39:15;;;;;;;;;;;;;;;27.68;97.00;95802.66;10484270;28;1388;-78
2023/09/10 13:44:18;;;;;;;;;;;;;;;27.69;99.31;95801.50;10499449;28;5095;-80
2023/09/10 13:49:20;;;;;;;;;;;;;;;27.66;100.00;95796.72;10470477;28;1313;-80
2023/09/10 13:54:23;;;;;;;;;;;;;;;27.71;98.12;95799.16;10477690;28;1985;-80
2023/09/10 13:59:25;;;;;;;;;;;;;;;27.68;100.00;95799.91;10477326;28;1412;-79
2023/09/10 14:04:29;;;;;;;;;;;;;;;27.77;99.17;95797.63;10469919;28;1148;-79
2023/09/10 14:09:32;;;;;;;;;;;;;;;27.83;100.00;95792.53;10469874;28;1289;-79
2023/09/10 14:14:34;;;;;;;;;;;;;;;27.54;100.00;95794.25;10478088;28;1993;-80
2023/09/10 14:19:36;;;;;;;;;;;;;;;27.67;100.00;95792.78;10470175;28;1388;-80
2023/09/10 14:24:39;;;;;;;;;;;;;;;27.70;98.01;95792.03;10479296;28;1408;-81
2023/09/10 14:29:41;;;;;;;;;;;;;;;27.57;98.87;95785.22;10470593;28;2256;-79
2023/09/10 14:34:44;;;;;;;;;;;;;;;27.64;100.00;95790.78;10474963;28;1913;-79
2023/09/10 14:39:46;;;;;;;;;;;;;;;27.56;100.00;95786.41;10491877;28;1436;-78
2023/09/10 14:44:49;;;;;;;;;;;;;;;27.41;100.00;95786.25;10474941;28;1335;-79
2023/09/10 14:49:51;;;;;;;;;;;;;;;27.61;100.00;95783.25;10488802;28;1138;-78
2023/09/10 14:54:57;;;;;;;;;;;;;;;27.59;100.00;95786.41;10479308;28;1906;-81
2023/09/10 15:00:00;;;;;;;;;;;;;;;27.36;100.00;95778.38;10468840;28;1051;-78
2023/09/10 15:05:03;;;;;;;;;;;;;;;27.24;100.00;95769.59;10492406;28;1637;-79
2023/09/10 15:10:05;;;;;;;;;;;;;;;27.34;100.00;95777.94;10504338;28;1435;-79
2023/09/10 15:15:08;;;;;;;;;;;;;;;27.24;100.00;95775.91;10484618;28;1906;-79
2023/09/10 15:20:10;;;;;;;;;;;;;;;27.28;100.00;95773.16;10483145;28;1345;-79
2023/09/10 15:25:13;;;;;;;;;;;;;;;27.13;100.00;95773.03;10482455;28;2359;-80
2023/09/10 15:30:15;;;;;;;;;;;;;;;27.04;100.00;95768.94;10486548;28;1512;-80
2023/09/10 15:35:17;;;;;;;;;;;;;;;26.99;100.00;95758.28;10495832;28;1918;-80
2023/09/10 15:40:20;;;;;;;;;;;;;;;26.99;100.00;95758.28;10485270;28;5327;-80
2023/09/10 15:45:22;;;;;;;;;;;;;;;26.95;100.00;95759.03;10489056;28;1431;-80
2023/09/10 15:50:25;;;;;;;;;;;;;;;26.79;100.00;95755.75;10480329;28;1198;-81
2023/09/10 15:55:27;;;;;;;;;;;;;;;26.79;100.00;95755.75;10468138;28;1917;-78
2023/09/10 16:00:30;;;;;;;;;;;;;;;26.73;100.00;95756.47;10483870;28;1443;-80
2023/09/10 16:05:33;;;;;;;;;;;;;;;26.65;100.00;95744.53;10479616;28;1123;-80
2023/09/10 16:10:36;;;;;;;;;;;;;;;26.62;100.00;95750.81;10492977;28;1574;-79
2023/09/10 16:15:38;;;;;;;;;;;;;;;26.54;100.00;95751.94;10479973;28;1949;-79
2023/09/10 16:20:40;;;;;;;;;;;;;;;26.52;100.00;95746.78;10448638;28;2475;-79
2023/09/10 16:25:43;;;;;;;;;;;;;;;26.40;100.00;95749.78;10488656;28;1658;-79
2023/09/10 16:30:45;;;;;;;;;;;;;;;26.30;100.00;95744.94;10487187;28;1387;-79
2023/09/10 16:35:48;;;;;;;;;;;;;;;26.17;100.00;95749.88;10459257;28;1887;-80
2023/09/10 16:40:50;;;;;;;;;;;;;;;26.10;100.00;95747.03;10485185;28;5147;-78
2023/09/10 16:45:53;;;;;;;;;;;;;;;25.97;100.00;95753.97;10461065;28;1208;-77
2023/09/10 16:50:56;;;;;;;;;;;;;;;25.91;100.00;95752.69;10464954;28;1455;-80
2023/09/10 16:55:59;;;;;;;;;;;;;;;25.77;100.00;95764.31;10474205;28;1909;-79
2023/09/10 17:01:01;;;;;;;;;;;;;;;25.70;100.00;95762.19;10477357;28;1384;-81
2023/09/10 17:06:04;;;;;;;;;;;;;;;25.53;100.00;95763.53;10466106;28;1028;-79
2023/09/10 17:11:06;;;;;;;;;;;;;;;25.41;100.00;95762.94;10481648;28;1032;-79
2023/09/10 17:16:09;;;;;;;;;;;;;;;25.24;100.00;95756.78;10467565;28;2279;-80
2023/09/10 17:21:11;;;;;;;;;;;;;;;25.12;100.00;95756.97;10475433;28;1329;-80
2023/09/10 17:26:17;;;;;;;;;;;;;;;24.96;100.00;95759.81;10472683;28;1083;-79
2023/09/10 17:31:20;;;;;;;;;;;;;;;24.80;100.00;95754.44;10473384;28;1761;-80
2023/09/10 17:36:23;;;;;;;;;;;;;;;24.73;100.00;95753.50;10488094;28;1979;-80
2023/09/10 17:41:26;;;;;;;;;;;;;;;24.42;100.00;95755.28;10475133;28;5251;-80
2023/09/10 17:46:31;;;;;;;;;;;;;;;24.34;100.00;95758.28;10473308;28;1079;-78
2023/09/10 17:51:33;;;;;;;;;;;;;;;24.16;100.00;95769.66;10478150;28;1464;-80
2023/09/10 17:56:36;;;;;;;;;;;;;;;24.04;100.00;95763.50;10492354;28;1906;-79
2023/09/10 18:01:38;;;;;;;;;;;;;;;23.96;100.00;95768.06;10477662;28;1502;-79
2023/09/10 18:06:41;;;;;;;;;;;;;;;23.81;100.00;95777.94;10457828;28;1369;-79
2023/09/10 18:11:43;;;;;;;;;;;;;;;23.62;100.00;95773.19;10465642;28;2304;-83
2023/09/10 18:16:45;;;;;;;;;;;;;;;23.59;100.00;95771.13;10475142;28;1913;-80
2023/09/10 18:21:48;;;;;;;;;;;;;;;23.35;100.00;95785.06;10483295;28;1457;-79
2023/09/10 18:26:50;;;;;;;;;;;;;;;23.28;100.00;95790.38;10488532;28;1079;-79
2023/09/10 18:31:53;;;;;;;;;;;;;;;23.23;100.00;95796.94;10493542;28;1361;-79
2023/09/10 18:36:56;;;;;;;;;;;;;;;23.11;100.00;95800.56;10457671;28;1962;-79
2023/09/10 18:41:59;;;;;;;;;;;;;;;23.07;100.00;95810.63;10464733;28;5110;-79
2023/09/10 18:47:04;;;;;;;;;;;;;;;22.96;100.00;95809.56;10475882;28;1369;-79
2023/09/10 18:52:06;;;;;;;;;;;;;;;22.86;100.00;95807.31;10480958;28;1361;-81
2023/09/10 18:57:13;;;;;;;;;;;;;;;22.81;100.00;95807.56;10476611;28;1901;-80
2023/09/10 19:02:16;;;;;;;;;;;;;;;22.66;100.00;95807.19;10473276;28;1455;-79
2023/09/10 19:07:20;;;;;;;;;;;;;;;22.65;100.00;95805.59;10456646;28;2299;-79
2023/09/10 19:12:22;;;;;;;;;;;;;;;22.57;100.00;95813.97;10474463;28;1784;-79
2023/09/10 19:17:25;;;;;;;;;;;;;;;22.62;100.00;95803.53;10489114;28;1950;-79
2023/09/10 19:22:28;;;;;;;;;;;;;;;22.52;100.00;95798.59;10494161;28;1432;-80
2023/09/10 19:27:31;;;;;;;;;;;;;;;22.36;100.00;95809.47;10487592;28;1218;-79
2023/09/10 19:32:33;;;;;;;;;;;;;;;22.24;100.00;95803.25;10470697;28;1425;-79
2023/09/10 19:37:36;;;;;;;;;;;;;;;;;;10488250;28;1909;-79
2023/09/10 19:42:38;;;;;;;;;;;;;;;22.08;100.00;95801.22;10476707;28;5011;-78
2023/09/10 19:47:41;;;;;;;;;;;;;;;21.91;100.00;95806.97;10476032;28;1489;-79
2023/09/10 19:52:43;;;;;;;;;;;;;;;21.89;100.00;95809.25;10478838;28;1408;-78
2023/09/10 19:57:46;;;;;;;;;;;;;;;21.84;100.00;95809.50;10483500;28;1976;-78
2023/09/10 20:02:48;;;;;;;;;;;;;;;21.63;100.00;95811.56;10479970;28;1360;-79
2023/09/10 20:07:51;;;;;;;;;;;;;;;21.49;100.00;95815.44;10483767;28;1483;-78
2023/09/10 20:12:53;;;;;;;;;;;;;;;21.42;100.00;95822.63;10491533;28;921;-79
2023/09/10 20:17:56;;;;;;;;;;;;;;;21.33;100.00;95821.94;10489590;28;1979;-80
2023/09/10 20:22:58;;;;;;;;;;;;;;;21.21;100.00;95825.44;10475983;28;1349;-80
2023/09/10 20:28:01;;;;;;;;;;;;;;;21.29;100.00;95821.81;10474023;28;1047;-78
2023/09/10 20:33:03;;;;;;;;;;;;;;;21.36;100.00;95822.03;10468252;28;1444;-79
2023/09/10 20:38:06;;;;;;;;;;;;;;;21.31;100.00;95822.25;10467519;28;1987;-78
2023/09/10 20:43:09;;;;;;;;;;;;;;;21.26;100.00;95815.06;10482212;28;1039;-80
2023/09/10 20:48:11;;;;;;;;;;;;;;;21.17;100.00;95810.84;10497821;28;1468;-78
2023/09/10 20:53:13;;;;;;;;;;;;;;;21.00;100.00;95809.94;10478648;28;1427;-79
2023/09/10 20:58:16;;;;;;;;;;;;;;;20.85;100.00;95810.56;10472187;28;1989;-79
2023/09/10 21:03:19;;;;;;;;;;;;;;;20.85;100.00;95799.63;10473601;28;2488;-78
2023/09/10 21:08:30;;;;;;;;;;;;;;;20.78;100.00;95807.59;10497130;28;1497;-79
2023/09/10 21:13:33;;;;;;;;;;;;;;;20.71;100.00;95799.16;10497574;28;1532;-80
2023/09/10 21:18:35;;;;;;;;;;;;;;;20.75;100.00;95803.59;10490464;28;1922;-79
2023/09/10 21:23:38;;;;;;;;;;;;;;;20.62;100.00;95802.00;10474902;28;1416;-79
2023/09/10 21:28:40;;;;;;;;;;;;;;;20.46;100.00;95799.06;10455194;28;1510;-79
2023/09/10 21:33:43;;;;;;;;;;;;;;;20.33;100.00;95805.59;10490885;28;1400;-79
2023/09/10 21:38:46;;;;;;;;;;;;;;;20.28;100.00;95803.06;10492170;28;1910;-79
2023/09/10 21:43:48;;;;;;;;;;;;;;;20.23;100.00;95808.72;10483282;28;5058;-80
2023/09/10 21:48:51;;;;;;;;;;;;;;;20.17;100.00;95808.16;10479735;28;1602;-79
2023/09/10 21:53:53;;;;;;;;;;;;;;;20.16;100.00;95805.72;10471662;28;1456;-80
2023/09/10 21:58:55;;;;;;;;;;;;;;;20.20;100.00;95802.00;10465533;28;2335;-78
2023/09/10 22:03:59;;;;;;;;;;;;;;;20.18;100.00;95808.94;10498586;28;1427;-79
2023/09/10 22:09:02;;;;;;;;;;;;;;;20.06;100.00;95808.88;10478215;28;1404;-79
2023/09/10 22:14:07;;;;;;;;;;;;;;;19.96;100.00;95808.13;10471586;28;1285;-79
2023/09/10 22:19:09;;;;;;;;;;;;;;;19.92;100.00;95804.50;10475631;28;1973;-79
2023/09/10 22:24:12;;;;;;;;;;;;;;;19.85;100.00;95808.84;10468709;28;1427;-78
2023/09/10 22:29:14;;;;;;;;;;;;;;;19.79;100.00;95802.81;10472256;28;1412;-78
2023/09/10 22:34:17;;;;;;;;;;;;;;;19.80;100.00;95804.41;10478578;28;1439;-78
2023/09/10 22:39:19;;;;;;;;;;;;;;;19.83;100.00;95802.94;10472664;28;1918;-79
2023/09/10 22:44:21;;;;;;;;;;;;;;;19.78;100.00;95809.38;10474401;28;5351;-79
2023/09/10 22:49:24;;;;;;;;;;;;;;;19.78;100.00;95803.94;10474061;28;1388;-80
2023/09/10 22:54:26;;;;;;;;;;;;;;;19.63;100.00;95793.63;10470653;28;2400;-79
2023/09/10 22:59:29;;;;;;;;;;;;;;;19.55;100.00;95802.63;10496709;28;1934;-79
2023/09/10 23:04:31;;;;;;;;;;;;;;;19.45;100.00;95798.34;10468974;28;1424;-79
2023/09/10 23:09:34;;;;;;;;;;;;;;;19.46;100.00;95799.94;10478931;28;1388;-79
2023/09/10 23:14:36;;;;;;;;;;;;;;;19.46;100.00;95791.75;10468934;28;1318;-79
2023/09/10 23:19:39;;;;;;;;;;;;;;;19.46;100.00;95791.75;10469413;28;1915;-79
2023/09/10 23:24:41;;;;;;;;;;;;;;;19.38;100.00;95785.22;10484079;28;1432;-80
2023/09/10 23:29:43;;;;;;;;;;;;;;;19.44;100.00;95786.63;10496737;28;1110;-78
2023/09/10 23:34:46;;;;;;;;;;;;;;;19.43;100.00;95774.16;10494292;28;1420;-78
2023/09/10 23:39:48;;;;;;;;;;;;;;;19.40;100.00;95779.44;10473002;28;5330;-78
2023/09/10 23:44:50;;;;;;;;;;;;;;;19.28;100.00;95772.00;10484262;28;1099;-79
2023/09/10 23:49:53;;;;;;;;;;;;;;;19.25;100.00;95769.13;10467369;28;2442;-79
2023/09/10 23:54:55;;;;;;;;;;;;;;;19.11;100.00;95761.19;10500301;28;1488;-79
2023/09/10 23:59:58;;;;;;;;;;;;;;;19.26;100.00;95751.63;10496012;28;1918;-78
